Time;durP1;ratioP1;P1;durP2;ratioP2;P2;SDS_P1;SDS_P2;PMS_P1;PMS_P2;Temp;Humidity;BMP_temperature;BMP_pressure;BME280_temperature;BME280_humidity;BME280_pressure;Samples;Min_cycle;Max_cycle;Signal;HPM_P1;HPM_P2
2024/01/14 00:14:55;;;;;;;11.20;5.50;;;;;;;3.77;100.00;98558.80;682113;1260;138501;-80
2024/01/14 00:30:00;;;;;;;11.70;6.10;;;;;;;3.76;100.00;98539.02;682179;1260;140294;-80
2024/01/14 00:45:04;;;;;;;9.40;5.50;;;;;;;3.79;100.00;98528.20;682350;1263;138425;-79
2024/01/14 01:00:10;;;;;;;10.00;5.00;;;;;;;3.89;100.00;98514.66;682246;1259;138700;-80
2024/01/14 01:15:14;;;;;;;7.90;4.50;;;;;;;3.85;100.00;98504.16;682284;1263;138600;-81
2024/01/14 01:30:17;;;;;;;13.10;6.30;;;;;;;3.78;100.00;98479.85;682121;1260;139216;-78
2024/01/14 01:45:21;;;;;;;13.30;4.30;;;;;;;3.80;100.00;98462.83;682315;1260;138891;-80
2024/01/14 02:00:25;;;;;;;5.70;4.00;;;;;;;3.86;100.00;98450.79;682045;1262;138589;-79
2024/01/14 02:15:29;;;;;;;8.10;4.40;;;;;;;3.86;100.00;98433.50;682436;1259;139586;-79
2024/01/14 02:30:36;;;;;;;6.20;4.00;;;;;;;3.81;100.00;98418.17;682171;1262;138810;-80
2024/01/14 02:45:39;;;;;;;6.10;3.20;;;;;;;3.79;100.00;98407.29;682330;1260;139182;-79
2024/01/14 03:00:43;;;;;;;6.40;3.70;;;;;;;3.79;99.54;98397.25;682252;1263;138846;-80
2024/01/14 03:15:46;;;;;;;5.90;3.10;;;;;;;3.74;99.85;98384.55;682109;1262;138967;-81
2024/01/14 03:30:50;;;;;;;11.20;4.70;;;;;;;3.77;99.45;98371.27;682160;1260;138402;-80
2024/01/14 03:45:54;;;;;;;7.00;3.30;;;;;;;3.73;99.45;98364.89;682325;1263;139500;-80
2024/01/14 04:00:57;;;;;;;9.80;4.30;;;;;;;3.67;99.37;98355.11;682225;1263;138192;-80
2024/01/14 04:16:01;;;;;;;17.60;5.00;;;;;;;3.63;99.12;98348.01;682278;1259;138359;-80
2024/01/14 04:31:05;;;;;;;6.80;3.60;;;;;;;3.58;99.24;98341.36;682134;1262;139319;-80
2024/01/14 04:46:12;;;;;;;9.40;3.90;;;;;;;3.50;99.63;98338.11;682352;1263;138282;-80
2024/01/14 05:01:15;;;;;;;8.50;2.80;;;;;;;3.46;99.82;98341.20;682167;1259;138446;-81
2024/01/14 05:16:21;;;;;;;52.40;19.20;;;;;;;3.39;99.91;98333.58;682418;1259;139542;-81
2024/01/14 05:31:24;;;;;;;45.20;14.80;;;;;;;3.37;100.00;98325.10;682278;1259;138646;-80
2024/01/14 05:46:27;;;;;;;19.50;7.00;;;;;;;3.43;100.00;98324.00;682288;1263;139696;-81
2024/01/14 06:01:31;;;;;;;9.30;4.50;;;;;;;3.52;100.00;98320.83;682000;1263;138801;-81
2024/01/14 06:16:38;;;;;;;21.00;6.90;;;;;;;3.52;100.00;98327.05;682199;1263;139296;-80
2024/01/14 06:31:44;;;;;;;14.10;5.50;;;;;;;3.48;100.00;98319.62;682237;1264;139554;-81
2024/01/14 06:46:51;;;;;;;18.40;5.60;;;;;;;3.45;100.00;98326.77;682110;1264;139065;-81
2024/01/14 07:01:55;;;;;;;15.70;4.60;;;;;;;3.43;100.00;98338.36;681991;1262;138888;-81
2024/01/14 07:16:58;;;;;;;14.00;4.90;;;;;;;3.60;100.00;98354.86;682115;1263;138944;-81
2024/01/14 07:32:01;;;;;;;11.00;4.00;;;;;;;3.70;100.00;98364.52;682181;1266;139132;-81
2024/01/14 07:47:09;;;;;;;11.90;5.10;;;;;;;3.85;99.79;98367.95;682174;1264;139450;-81
2024/01/14 08:02:14;;;;;;;13.40;4.60;;;;;;;3.94;99.29;98377.80;682365;1265;138565;-81
2024/01/14 08:17:21;;;;;;;16.50;7.40;;;;;;;4.05;98.89;98398.35;681983;1264;139394;-82
2024/01/14 08:32:25;;;;;;;37.00;16.20;;;;;;;4.15;98.54;98401.09;681940;1266;138609;-82
2024/01/14 08:47:29;;;;;;;40.50;22.40;;;;;;;4.18;98.01;98415.52;682140;1260;139425;-83
2024/01/14 09:02:36;;;;;;;94.40;45.70;;;;;;;4.34;97.61;98431.08;682072;1263;140421;-83
2024/01/14 09:17:40;;;;;;;66.50;23.40;;;;;;;4.44;96.83;98441.77;682051;1264;139472;-83
2024/01/14 09:32:45;;;;;;;69.60;30.40;;;;;;;4.45;96.71;98446.83;682104;1264;139339;-83
2024/01/14 09:47:50;;;;;;;27.40;13.10;;;;;;;4.53;96.15;98449.45;682146;1260;138487;-82
2024/01/14 10:02:56;;;;;;;32.20;15.30;;;;;;;4.54;95.55;98453.63;682034;1263;139178;-83
2024/01/14 10:18:01;;;;;;;20.20;8.80;;;;;;;4.32;94.98;98450.62;682107;1260;139707;-83
2024/01/14 10:33:06;;;;;;;43.80;12.10;;;;;;;4.46;94.87;98450.89;682144;1265;138471;-82
2024/01/14 10:48:26;;;;;;;70.70;22.90;;;;;;;4.49;94.73;98445.64;682346;1263;139130;-84
2024/01/14 11:03:33;;;;;;;29.80;13.00;;;;;;;4.73;93.36;98451.60;682360;1263;138822;-83
2024/01/14 11:18:51;;;;;;;37.10;13.00;;;;;;;4.63;93.72;98447.64;682241;1260;138382;-84
2024/01/14 11:33:56;;;;;;;24.30;10.80;;;;;;;4.56;93.97;98433.55;682375;1263;140049;-83
2024/01/14 11:49:03;;;;;;;48.50;16.50;;;;;;;4.68;93.64;98418.97;682288;1262;138402;-84
2024/01/14 12:04:18;;;;;;;;;;;;;;;4.70;93.11;98409.55;682154;1262;138354;-83
2024/01/14 12:19:24;;;;;;;42.80;17.30;;;;;;;4.63;92.97;98412.63;682008;1260;124768;-84
2024/01/14 12:34:29;;;;;;;71.10;26.90;;;;;;;4.73;91.96;98412.54;682129;1265;138628;-84
2024/01/14 12:49:33;;;;;;;118.30;40.20;;;;;;;4.94;91.41;98414.08;682085;1263;139054;-82
2024/01/14 13:04:37;;;;;;;42.80;15.40;;;;;;;4.82;90.83;98417.97;682274;1265;139106;-83
2024/01/14 13:19:41;;;;;;;32.10;11.70;;;;;;;4.53;89.77;98416.12;682220;1262;139218;-85
2024/01/14 13:34:45;;;;;;;39.80;12.30;;;;;;;4.45;89.72;98418.08;682087;1263;138970;-84
2024/01/14 13:49:48;;;;;;;101.30;30.70;;;;;;;4.43;89.00;98414.81;681985;1260;139082;-83
2024/01/14 14:04:53;;;;;;;24.50;11.00;;;;;;;4.34;89.14;98417.16;682293;1264;140161;-83
2024/01/14 14:20:14;;;;;;;28.30;9.20;;;;;;;4.26;89.40;98420.73;682147;1263;138965;-85
2024/01/14 14:35:19;;;;;;;;;;;;;;;4.07;89.51;98417.39;682084;1263;138466;-83
2024/01/14 14:50:23;;;;;;;22.80;7.10;;;;;;;4.03;88.99;98414.47;682405;1263;125192;-84
2024/01/14 15:05:29;;;;;;;14.20;5.70;;;;;;;3.83;87.60;98405.57;682197;1260;138941;-85
2024/01/14 15:20:35;;;;;;;15.50;7.90;;;;;;;3.86;87.57;98415.96;682249;1262;138727;-84
2024/01/14 15:35:39;;;;;;;46.90;12.90;;;;;;;3.86;87.34;98405.96;682006;1262;139260;-87
2024/01/14 15:50:43;;;;;;;27.20;9.30;;;;;;;3.76;87.64;98388.20;682193;1264;138581;-86
2024/01/14 16:06:03;;;;;;;21.00;9.70;;;;;;;3.73;88.23;98390.53;682193;1260;138746;-87
2024/01/14 16:21:07;;;;;;;44.90;13.50;;;;;;;3.61;89.61;98390.91;682286;1263;138497;-85
2024/01/14 16:36:13;;;;;;;73.10;20.40;;;;;;;3.58;90.61;98376.52;682079;1260;139415;-84
2024/01/14 16:51:19;;;;;;;52.90;17.20;;;;;;;3.52;91.38;98365.56;682219;1259;138975;-84
2024/01/14 17:06:25;;;;;;;44.60;13.20;;;;;;;3.46;92.38;98353.30;682029;1263;138986;-83
2024/01/14 17:21:28;;;;;;;55.30;17.80;;;;;;;3.41;92.71;98344.83;682165;1260;138460;-86
2024/01/14 17:36:34;;;;;;;17.90;7.20;;;;;;;3.45;92.45;98325.42;682018;1260;139756;-84
2024/01/14 17:51:38;;;;;;;24.40;7.40;;;;;;;3.49;92.04;98310.55;682335;1261;139138;-86
2024/01/14 18:06:44;;;;;;;22.10;9.60;;;;;;;3.44;92.60;98292.34;682126;1263;138837;-84
2024/01/14 18:21:50;;;;;;;24.20;10.70;;;;;;;3.44;92.95;98286.98;682321;1263;138339;-85
2024/01/14 18:36:55;;;;;;;33.00;12.40;;;;;;;3.47;93.35;98277.91;682159;1260;138665;-86
2024/01/14 18:52:04;;;;;;;28.60;10.20;;;;;;;3.51;93.63;98264.61;682412;1259;140212;-85
2024/01/14 19:07:11;;;;;;;28.60;12.00;;;;;;;3.46;94.54;98248.73;682155;1259;138705;-84
2024/01/14 19:22:17;;;;;;;29.00;12.50;;;;;;;3.50;95.26;98229.35;682087;1260;174829;-85
2024/01/14 19:37:22;;;;;;;36.90;15.50;;;;;;;3.49;95.53;98205.84;682121;1264;138499;-84
2024/01/14 19:52:27;;;;;;;40.00;16.30;;;;;;;3.50;96.32;98201.90;682535;1263;138372;-84
2024/01/14 20:07:31;;;;;;;37.80;15.70;;;;;;;3.39;97.81;98196.17;682228;1262;138830;-84
2024/01/14 20:22:36;;;;;;;27.30;12.60;;;;;;;3.49;97.92;98181.92;682178;1263;138664;-84
2024/01/14 20:37:42;;;;;;;50.70;20.70;;;;;;;3.53;97.81;98163.94;682284;1263;139671;-84
2024/01/14 20:52:46;;;;;;;21.50;10.70;;;;;;;3.54;97.83;98142.64;682268;1263;138765;-84
2024/01/14 21:07:52;;;;;;;36.50;12.30;;;;;;;3.49;97.98;98127.81;682204;1263;138721;-84
2024/01/14 21:22:58;;;;;;;;;;;;;;;3.32;99.32;98120.23;682257;1259;139480;-84
2024/01/14 21:38:03;;;;;;;33.30;11.00;;;;;;;3.30;99.91;98108.16;682253;1264;125144;-84
2024/01/14 21:53:06;;;;;;;53.60;15.40;;;;;;;3.31;100.00;98099.23;682307;1262;138691;-84
2024/01/14 22:08:10;;;;;;;28.20;10.10;;;;;;;3.35;99.98;98087.68;682344;1264;138690;-84
2024/01/14 22:23:15;;;;;;;13.80;6.20;;;;;;;3.28;99.94;98070.70;682102;1263;138872;-84
2024/01/14 22:38:21;;;;;;;26.20;8.60;;;;;;;3.33;99.45;98053.66;682219;1264;138718;-85
2024/01/14 22:53:24;;;;;;;24.60;8.60;;;;;;;3.31;99.06;98029.96;682093;1263;138672;-85
2024/01/14 23:08:28;;;;;;;19.00;6.40;;;;;;;3.36;98.49;98004.59;682267;1264;138246;-85
2024/01/14 23:23:31;;;;;;;98.80;33.70;;;;;;;3.42;97.43;97978.50;682032;1263;139391;-86
2024/01/14 23:38:35;;;;;;;20.00;7.60;;;;;;;3.39;96.95;97954.77;682261;1259;138894;-85
2024/01/14 23:53:39;;;;;;;55.20;21.90;;;;;;;3.47;96.83;97927.09;682257;1264;138441;-85
